CYLD

Chapleau Airport

Chapleau, Ontario, Canada
METAR CYLD 181400Z 35008KT 15SM -SN BKN015 BKN032 M20/M22 A2994 RMK SC5SC2 SLP186
Observed Flight Rules
Jan-18 @ 14:00 UTC (32 minutes ago) Marginal Visual Flight Rules
Wind Visibility Clouds Conditions
350° at 8 knots 15 miles
  • Broken at 1,500' AGL
  • Broken at 3,200' AGL
  • Light Snow
Temperatures Readings
Current -20°C / -4°F
Dewpoint -22°C / -8°F
Humidity 84%
Altimeter 29.94" Hg
Pressure 1018.6 hPa
Elevation 447
METAR CYLD 181400Z 35008KT 15SM -SN BKN015 BKN032 M20/M22 A2994 RMK SC5SC2 SLP186
Observed Flight Rules
Jan-18 @ 14:00 UTC
(32 minutes ago)
MVFR
Wind Visibility
350° at 8 knots 15 miles
Clouds
  • Broken at 1,500' AGL
  • Broken at 3,200' AGL
Conditions
  • Light Snow
Temperature Dewpoint
-20°C / -4°F -22°C / -8°F
Humidity Altimeter Pressure
84% 29.94" Hg 1018.6 hPa